Friday, December 19, 2014
03:59 UTC
  |  Log In   |  Register Free
Airport Search:

Clinton-Sampson County Airport
(KCTZ)

Clinton-Sampson County Airport Diagram
No Airport Diagram Available

FAA data valid effective November 13, 2014 - January 08, 2015 (unless otherwise noted).

 
 
 
 
 
 
 
 
 
 
 
 
 
 

Current Aviation Weather for Clinton-Sampson County Airport (KCTZ)

The most recent METAR observation for KCTZ was updated at: 2112
METAR Summary (Translated METAR)
KCTZ
182055Z AUTO 00000KT 10SM CLR 11/M01 A3010 RMK AO2 T01081007
KDPL
182055Z AUTO 00000KT 10SM CLR 11/M03 A3010 RMK AO2 T01091032
(18.9 nm NE from KCTZ)
KEYF
182055Z AUTO 00000KT 10SM CLR 13/M02 A3009 RMK AO2 T01271023
(24.8 nm SW from KCTZ)
TAF
No TAF information found within 50 nm of KCTZ
  Airport Weather Conditions for KCTZ

 Current Weather at CTZ
37° F
Fair
North winds at 0.0 mph
CTZ NOAA Radar

Pressure: 30.11 in
Humidity: 91%
Wind: Calm
Dew Point: 34.0°F
Visibility: 10.00 mi


Airport Weather Forecast for KCTZ

Translated METAR and TAF for KCTZ
Translated METAR for KCTZ (0359 UTC 19 December 2014)
found at http://aviationweather.gov/adds/metars/
 
METAR text: KCTZ 190335Z AUTO 00000KT 10SM BKN070 BKN110 02/02 A3013 RMK AO2 T00210015
Conditions at: KCTZ (CLINTON , NC, US) observed 0335 UTC 19 December 2014
Temperature: 2.1°C (36°F)
Dewpoint: 1.5°C (35°F) [RH = 96%]
Pressure (altimeter): 30.13 inches Hg (1020.4 mb)
Winds: calm
Visibility: 10 or more miles (16+ km)
Ceiling: 7000 feet AGL
Clouds: broken clouds at 7000 feet AGL
broken clouds at 11000 feet AGL
Weather: automated observation with no human augmentation;
there may or may not be significant weather present at this time
Translated TAF for KCTZ

There is no translated TAF available for this airport

Find All Airport Services Find A Hotel Find A Rental Car Find A Golf Course Find A Restaurant $100 Hamburger



FBO's on the Field
FBO Company Facility Photos Services Transportation Aviation Fuel Prices: Prices include tax
Catering Weather Repair Courtesy Rental Type 100LL JetA JetA+ MOGAS 8087
 
Clinton Flying Service

This FBO has not yet been rated
FS:Shell
Last Updated: Nov-18
Login to update fuel prices
SS:
Contact Clinton Flying ServiceMore FBO Information
 
Add another FBO Facility Photos Catering Weather Repair Courtesy Rental Type 100LL JetA JetA+ MOGAS 8087
Services Transportation Aviation Fuel Prices: Prices include tax


model-print
model-print
model-print
model-print